sensor_id;sensor_type;location;lat;lon;timestamp;temperature;humidity
19665;DHT22;9980;51.020;7.772;2023-07-29T00:00:59;22.00;99.90
19665;DHT22;9980;51.020;7.772;2023-07-29T00:03:29;22.00;99.90
19665;DHT22;9980;51.020;7.772;2023-07-29T00:06:02;22.00;99.90
19665;DHT22;9980;51.020;7.772;2023-07-29T00:08:29;22.00;99.90
19665;DHT22;9980;51.020;7.772;2023-07-29T00:10:56;22.00;99.90
19665;DHT22;9980;51.020;7.772;2023-07-29T00:13:23;21.90;99.90
19665;DHT22;9980;51.020;7.772;2023-07-29T00:15:54;21.90;99.90
19665;DHT22;9980;51.020;7.772;2023-07-29T00:18:22;21.90;99.90
19665;DHT22;9980;51.020;7.772;2023-07-29T00:20:50;21.90;99.90
19665;DHT22;9980;51.020;7.772;2023-07-29T00:23:17;21.90;99.90
19665;DHT22;9980;51.020;7.772;2023-07-29T00:25:48;21.90;99.90
19665;DHT22;9980;51.020;7.772;2023-07-29T00:28:18;21.90;99.90
19665;DHT22;9980;51.020;7.772;2023-07-29T00:30:48;21.90;99.90
19665;DHT22;9980;51.020;7.772;2023-07-29T00:33:18;21.90;99.90
19665;DHT22;9980;51.020;7.772;2023-07-29T00:35:47;21.90;99.90
19665;DHT22;9980;51.020;7.772;2023-07-29T00:38:14;22.00;99.90
19665;DHT22;9980;51.020;7.772;2023-07-29T00:40:41;22.00;99.90
19665;DHT22;9980;51.020;7.772;2023-07-29T00:43:08;22.00;99.90
19665;DHT22;9980;51.020;7.772;2023-07-29T00:45:35;21.90;99.90
19665;DHT22;9980;51.020;7.772;2023-07-29T00:48:03;21.90;99.90
19665;DHT22;9980;51.020;7.772;2023-07-29T00:50:32;22.00;99.90
19665;DHT22;9980;51.020;7.772;2023-07-29T00:53:00;21.90;99.90
19665;DHT22;9980;51.020;7.772;2023-07-29T00:55:28;22.00;99.90
19665;DHT22;9980;51.020;7.772;2023-07-29T00:57:55;21.90;99.90
19665;DHT22;9980;51.020;7.772;2023-07-29T01:00:22;22.00;99.90
19665;DHT22;9980;51.020;7.772;2023-07-29T01:02:55;22.00;99.90
19665;DHT22;9980;51.020;7.772;2023-07-29T01:05:27;22.00;99.90
19665;DHT22;9980;51.020;7.772;2023-07-29T01:08:15;21.90;99.90
19665;DHT22;9980;51.020;7.772;2023-07-29T01:10:56;22.00;99.90
19665;DHT22;9980;51.020;7.772;2023-07-29T01:13:48;22.00;99.90
19665;DHT22;9980;51.020;7.772;2023-07-29T01:16:31;22.00;99.90
19665;DHT22;9980;51.020;7.772;2023-07-29T01:19:06;21.90;99.90
19665;DHT22;9980;51.020;7.772;2023-07-29T01:21:36;21.90;99.90
19665;DHT22;9980;51.020;7.772;2023-07-29T01:24:04;22.00;99.90
19665;DHT22;9980;51.020;7.772;2023-07-29T01:26:34;22.00;99.90
19665;DHT22;9980;51.020;7.772;2023-07-29T01:29:02;22.00;99.90
19665;DHT22;9980;51.020;7.772;2023-07-29T01:31:34;21.90;99.90
19665;DHT22;9980;51.020;7.772;2023-07-29T01:34:17;22.00;99.90
19665;DHT22;9980;51.020;7.772;2023-07-29T01:36:50;21.90;99.90
19665;DHT22;9980;51.020;7.772;2023-07-29T01:39:20;22.00;99.90
19665;DHT22;9980;51.020;7.772;2023-07-29T01:41:51;22.00;99.90
19665;DHT22;9980;51.020;7.772;2023-07-29T01:44:18;21.90;99.90
19665;DHT22;9980;51.020;7.772;2023-07-29T01:46:47;21.90;99.90
19665;DHT22;9980;51.020;7.772;2023-07-29T01:49:14;21.90;99.90
19665;DHT22;9980;51.020;7.772;2023-07-29T01:51:41;21.90;99.90
19665;DHT22;9980;51.020;7.772;2023-07-29T01:54:08;21.90;99.90
19665;DHT22;9980;51.020;7.772;2023-07-29T01:56:35;21.90;99.90
19665;DHT22;9980;51.020;7.772;2023-07-29T01:59:04;21.90;99.90
19665;DHT22;9980;51.020;7.772;2023-07-29T02:01:31;21.90;99.90
19665;DHT22;9980;51.020;7.772;2023-07-29T02:03:58;21.90;99.90
19665;DHT22;9980;51.020;7.772;2023-07-29T02:06:25;21.90;99.90
19665;DHT22;9980;51.020;7.772;2023-07-29T02:08:53;21.90;99.90
19665;DHT22;9980;51.020;7.772;2023-07-29T02:11:21;21.90;99.90
19665;DHT22;9980;51.020;7.772;2023-07-29T02:13:54;21.90;99.90
19665;DHT22;9980;51.020;7.772;2023-07-29T02:16:22;21.90;99.90
19665;DHT22;9980;51.020;7.772;2023-07-29T02:18:50;21.90;99.90
19665;DHT22;9980;51.020;7.772;2023-07-29T02:21:20;21.90;99.90
19665;DHT22;9980;51.020;7.772;2023-07-29T02:23:55;21.90;99.90
19665;DHT22;9980;51.020;7.772;2023-07-29T02:26:23;21.90;99.90
19665;DHT22;9980;51.020;7.772;2023-07-29T02:28:50;21.90;99.90
19665;DHT22;9980;51.020;7.772;2023-07-29T02:31:21;21.90;99.90
19665;DHT22;9980;51.020;7.772;2023-07-29T02:33:51;21.90;99.90
19665;DHT22;9980;51.020;7.772;2023-07-29T02:36:19;21.90;99.90
19665;DHT22;9980;51.020;7.772;2023-07-29T02:38:46;21.90;99.90
19665;DHT22;9980;51.020;7.772;2023-07-29T02:45:15;21.90;99.90
19665;DHT22;9980;51.020;7.772;2023-07-29T02:47:42;21.90;99.90
19665;DHT22;9980;51.020;7.772;2023-07-29T02:50:09;21.90;99.90
19665;DHT22;9980;51.020;7.772;2023-07-29T02:52:37;21.90;99.90
19665;DHT22;9980;51.020;7.772;2023-07-29T02:55:04;21.90;99.90
19665;DHT22;9980;51.020;7.772;2023-07-29T02:57:31;21.90;99.90
19665;DHT22;9980;51.020;7.772;2023-07-29T02:59:58;21.90;99.90
19665;DHT22;9980;51.020;7.772;2023-07-29T03:02:44;21.90;99.90
19665;DHT22;9980;51.020;7.772;2023-07-29T03:05:49;21.90;99.90
19665;DHT22;9980;51.020;7.772;2023-07-29T03:08:16;21.90;99.90
19665;DHT22;9980;51.020;7.772;2023-07-29T03:10:45;21.90;99.90
19665;DHT22;9980;51.020;7.772;2023-07-29T03:13:20;21.90;99.90
19665;DHT22;9980;51.020;7.772;2023-07-29T03:15:47;21.90;99.90
19665;DHT22;9980;51.020;7.772;2023-07-29T03:18:15;21.90;99.90
19665;DHT22;9980;51.020;7.772;2023-07-29T03:20:42;21.90;99.90
19665;DHT22;9980;51.020;7.772;2023-07-29T03:23:09;21.90;99.90
19665;DHT22;9980;51.020;7.772;2023-07-29T03:25:40;21.90;99.90
19665;DHT22;9980;51.020;7.772;2023-07-29T03:28:06;21.90;99.90
19665;DHT22;9980;51.020;7.772;2023-07-29T03:30:33;21.90;99.90
19665;DHT22;9980;51.020;7.772;2023-07-29T03:33:00;21.90;99.90
19665;DHT22;9980;51.020;7.772;2023-07-29T03:35:28;21.90;99.90
19665;DHT22;9980;51.020;7.772;2023-07-29T03:37:55;21.90;99.90
19665;DHT22;9980;51.020;7.772;2023-07-29T03:40:22;21.90;99.90
19665;DHT22;9980;51.020;7.772;2023-07-29T03:42:49;21.80;99.90
19665;DHT22;9980;51.020;7.772;2023-07-29T03:45:16;21.90;99.90
19665;DHT22;9980;51.020;7.772;2023-07-29T03:47:45;21.80;99.90
19665;DHT22;9980;51.020;7.772;2023-07-29T03:50:12;21.80;99.90
19665;DHT22;9980;51.020;7.772;2023-07-29T03:52:39;21.80;99.90
19665;DHT22;9980;51.020;7.772;2023-07-29T03:55:07;21.70;99.90
19665;DHT22;9980;51.020;7.772;2023-07-29T03:57:34;21.70;99.90
19665;DHT22;9980;51.020;7.772;2023-07-29T04:00:01;21.70;99.90
19665;DHT22;9980;51.020;7.772;2023-07-29T04:02:30;21.70;99.90
19665;DHT22;9980;51.020;7.772;2023-07-29T04:04:57;21.60;99.90
19665;DHT22;9980;51.020;7.772;2023-07-29T04:07:24;21.60;99.90
19665;DHT22;9980;51.020;7.772;2023-07-29T04:09:51;21.60;99.90
19665;DHT22;9980;51.020;7.772;2023-07-29T04:12:18;21.60;99.90
19665;DHT22;9980;51.020;7.772;2023-07-29T04:14:48;21.50;99.90
19665;DHT22;9980;51.020;7.772;2023-07-29T04:17:15;21.50;99.90
19665;DHT22;9980;51.020;7.772;2023-07-29T04:19:45;21.50;99.90
19665;DHT22;9980;51.020;7.772;2023-07-29T04:22:12;21.50;99.90
19665;DHT22;9980;51.020;7.772;2023-07-29T04:24:39;21.50;99.90
19665;DHT22;9980;51.020;7.772;2023-07-29T04:27:06;21.50;99.90
19665;DHT22;9980;51.020;7.772;2023-07-29T04:29:33;21.50;99.90
19665;DHT22;9980;51.020;7.772;2023-07-29T04:32:05;21.50;99.90
19665;DHT22;9980;51.020;7.772;2023-07-29T04:34:32;21.50;99.90
19665;DHT22;9980;51.020;7.772;2023-07-29T04:36:59;21.50;99.90
19665;DHT22;9980;51.020;7.772;2023-07-29T04:39:26;21.50;99.90
19665;DHT22;9980;51.020;7.772;2023-07-29T04:41:53;21.50;99.90
19665;DHT22;9980;51.020;7.772;2023-07-29T04:44:20;21.50;99.90
19665;DHT22;9980;51.020;7.772;2023-07-29T04:46:50;21.50;99.90
19665;DHT22;9980;51.020;7.772;2023-07-29T04:49:17;21.50;99.90
19665;DHT22;9980;51.020;7.772;2023-07-29T04:51:44;21.50;99.90
19665;DHT22;9980;51.020;7.772;2023-07-29T04:54:11;21.60;99.90
19665;DHT22;9980;51.020;7.772;2023-07-29T04:56:38;21.60;99.90
19665;DHT22;9980;51.020;7.772;2023-07-29T04:59:05;21.60;99.90
19665;DHT22;9980;51.020;7.772;2023-07-29T05:01:35;21.60;99.90
19665;DHT22;9980;51.020;7.772;2023-07-29T05:04:02;21.60;99.90
19665;DHT22;9980;51.020;7.772;2023-07-29T05:06:32;21.60;99.90
19665;DHT22;9980;51.020;7.772;2023-07-29T05:09:16;21.60;99.90
19665;DHT22;9980;51.020;7.772;2023-07-29T05:11:44;21.70;99.90
19665;DHT22;9980;51.020;7.772;2023-07-29T05:14:17;21.70;99.90
19665;DHT22;9980;51.020;7.772;2023-07-29T05:16:44;21.70;99.90
19665;DHT22;9980;51.020;7.772;2023-07-29T05:19:11;21.70;99.90
19665;DHT22;9980;51.020;7.772;2023-07-29T05:21:39;21.70;99.90
19665;DHT22;9980;51.020;7.772;2023-07-29T05:24:06;21.70;99.90
19665;DHT22;9980;51.020;7.772;2023-07-29T05:26:33;21.70;99.90
19665;DHT22;9980;51.020;7.772;2023-07-29T05:29:01;21.70;99.90
19665;DHT22;9980;51.020;7.772;2023-07-29T05:31:28;21.80;99.90
19665;DHT22;9980;51.020;7.772;2023-07-29T05:33:56;21.80;99.90
19665;DHT22;9980;51.020;7.772;2023-07-29T05:36:23;21.90;99.90
19665;DHT22;9980;51.020;7.772;2023-07-29T05:38:51;21.80;99.90
19665;DHT22;9980;51.020;7.772;2023-07-29T05:41:18;21.80;99.90
19665;DHT22;9980;51.020;7.772;2023-07-29T05:43:45;21.90;99.90
19665;DHT22;9980;51.020;7.772;2023-07-29T05:46:13;21.90;99.90
19665;DHT22;9980;51.020;7.772;2023-07-29T05:48:40;21.90;99.90
19665;DHT22;9980;51.020;7.772;2023-07-29T05:51:07;21.90;99.90
19665;DHT22;9980;51.020;7.772;2023-07-29T05:53:35;21.90;99.90
19665;DHT22;9980;51.020;7.772;2023-07-29T05:56:02;21.90;99.90
19665;DHT22;9980;51.020;7.772;2023-07-29T05:58:29;21.90;99.90
19665;DHT22;9980;51.020;7.772;2023-07-29T06:00:58;22.00;99.90
19665;DHT22;9980;51.020;7.772;2023-07-29T06:03:25;22.00;99.90
19665;DHT22;9980;51.020;7.772;2023-07-29T06:05:52;22.00;99.90
19665;DHT22;9980;51.020;7.772;2023-07-29T06:08:21;22.00;99.90
19665;DHT22;9980;51.020;7.772;2023-07-29T06:10:48;22.00;99.90
19665;DHT22;9980;51.020;7.772;2023-07-29T06:13:15;22.00;99.90
19665;DHT22;9980;51.020;7.772;2023-07-29T06:15:42;22.10;99.90
19665;DHT22;9980;51.020;7.772;2023-07-29T06:18:10;22.10;99.90
19665;DHT22;9980;51.020;7.772;2023-07-29T06:20:50;22.10;99.90
19665;DHT22;9980;51.020;7.772;2023-07-29T06:23:17;22.10;99.90
19665;DHT22;9980;51.020;7.772;2023-07-29T06:25:44;22.10;99.90
19665;DHT22;9980;51.020;7.772;2023-07-29T06:28:11;22.10;99.90
19665;DHT22;9980;51.020;7.772;2023-07-29T06:30:38;22.20;99.90
19665;DHT22;9980;51.020;7.772;2023-07-29T06:33:05;22.20;99.90
19665;DHT22;9980;51.020;7.772;2023-07-29T06:35:32;22.20;99.90
19665;DHT22;9980;51.020;7.772;2023-07-29T06:37:59;22.20;99.90
19665;DHT22;9980;51.020;7.772;2023-07-29T06:40:26;22.20;99.90
19665;DHT22;9980;51.020;7.772;2023-07-29T06:42:53;22.20;99.90
19665;DHT22;9980;51.020;7.772;2023-07-29T06:45:20;22.20;99.90
19665;DHT22;9980;51.020;7.772;2023-07-29T06:47:47;22.20;99.90
19665;DHT22;9980;51.020;7.772;2023-07-29T06:50:14;22.20;99.90
19665;DHT22;9980;51.020;7.772;2023-07-29T06:52:42;22.30;99.90
19665;DHT22;9980;51.020;7.772;2023-07-29T06:55:09;22.30;99.90
19665;DHT22;9980;51.020;7.772;2023-07-29T06:57:36;22.30;99.90
19665;DHT22;9980;51.020;7.772;2023-07-29T07:00:03;22.30;99.90
19665;DHT22;9980;51.020;7.772;2023-07-29T07:02:31;22.30;99.90
19665;DHT22;9980;51.020;7.772;2023-07-29T07:04:58;22.30;99.90
19665;DHT22;9980;51.020;7.772;2023-07-29T07:07:24;22.40;99.90
19665;DHT22;9980;51.020;7.772;2023-07-29T07:09:52;22.40;99.90
19665;DHT22;9980;51.020;7.772;2023-07-29T07:12:19;22.40;99.90
19665;DHT22;9980;51.020;7.772;2023-07-29T07:14:46;22.40;99.90
19665;DHT22;9980;51.020;7.772;2023-07-29T07:17:13;22.40;99.90
19665;DHT22;9980;51.020;7.772;2023-07-29T07:19:40;22.40;99.90
19665;DHT22;9980;51.020;7.772;2023-07-29T07:22:07;22.50;99.90
19665;DHT22;9980;51.020;7.772;2023-07-29T07:24:34;22.50;99.90
19665;DHT22;9980;51.020;7.772;2023-07-29T07:27:01;22.60;99.90
19665;DHT22;9980;51.020;7.772;2023-07-29T07:29:28;22.60;99.90
19665;DHT22;9980;51.020;7.772;2023-07-29T07:31:56;22.60;99.90
19665;DHT22;9980;51.020;7.772;2023-07-29T07:34:24;22.70;99.90
19665;DHT22;9980;51.020;7.772;2023-07-29T07:36:51;22.70;99.90
19665;DHT22;9980;51.020;7.772;2023-07-29T07:39:21;22.70;99.90
19665;DHT22;9980;51.020;7.772;2023-07-29T07:41:48;22.80;99.90
19665;DHT22;9980;51.020;7.772;2023-07-29T07:44:15;22.80;99.90
19665;DHT22;9980;51.020;7.772;2023-07-29T07:46:44;22.80;99.90
19665;DHT22;9980;51.020;7.772;2023-07-29T07:49:11;22.80;99.90
19665;DHT22;9980;51.020;7.772;2023-07-29T07:51:39;22.90;99.90
19665;DHT22;9980;51.020;7.772;2023-07-29T07:54:06;22.90;99.90
19665;DHT22;9980;51.020;7.772;2023-07-29T07:56:33;23.00;99.90
19665;DHT22;9980;51.020;7.772;2023-07-29T07:59:01;23.00;99.90
19665;DHT22;9980;51.020;7.772;2023-07-29T08:01:34;23.10;99.90
19665;DHT22;9980;51.020;7.772;2023-07-29T08:04:03;23.10;99.90
19665;DHT22;9980;51.020;7.772;2023-07-29T08:06:33;23.10;99.90
19665;DHT22;9980;51.020;7.772;2023-07-29T08:09:01;23.20;99.90
19665;DHT22;9980;51.020;7.772;2023-07-29T08:11:28;23.30;99.90
19665;DHT22;9980;51.020;7.772;2023-07-29T08:13:55;23.40;99.90
19665;DHT22;9980;51.020;7.772;2023-07-29T08:16:22;23.50;99.90
19665;DHT22;9980;51.020;7.772;2023-07-29T08:18:49;23.60;99.90
19665;DHT22;9980;51.020;7.772;2023-07-29T08:21:16;23.70;99.90
19665;DHT22;9980;51.020;7.772;2023-07-29T08:23:43;23.80;99.90
19665;DHT22;9980;51.020;7.772;2023-07-29T08:26:09;23.90;99.90
19665;DHT22;9980;51.020;7.772;2023-07-29T08:28:38;23.90;99.90
19665;DHT22;9980;51.020;7.772;2023-07-29T08:31:06;24.00;99.90
19665;DHT22;9980;51.020;7.772;2023-07-29T08:33:33;24.00;99.90
19665;DHT22;9980;51.020;7.772;2023-07-29T08:36:02;24.00;99.90
19665;DHT22;9980;51.020;7.772;2023-07-29T08:38:29;24.00;99.90
19665;DHT22;9980;51.020;7.772;2023-07-29T08:41:19;24.00;99.90
19665;DHT22;9980;51.020;7.772;2023-07-29T08:44:11;23.90;99.90
19665;DHT22;9980;51.020;7.772;2023-07-29T08:46:44;24.00;99.90
19665;DHT22;9980;51.020;7.772;2023-07-29T08:49:12;24.00;99.90
19665;DHT22;9980;51.020;7.772;2023-07-29T08:51:42;24.00;99.90
19665;DHT22;9980;51.020;7.772;2023-07-29T08:54:11;24.10;99.90
19665;DHT22;9980;51.020;7.772;2023-07-29T08:56:40;24.10;99.90
19665;DHT22;9980;51.020;7.772;2023-07-29T08:59:11;24.20;99.90
19665;DHT22;9980;51.020;7.772;2023-07-29T09:01:40;24.30;99.90
19665;DHT22;9980;51.020;7.772;2023-07-29T09:04:08;24.40;99.90
19665;DHT22;9980;51.020;7.772;2023-07-29T09:06:36;24.40;99.90
19665;DHT22;9980;51.020;7.772;2023-07-29T09:09:07;24.50;99.90
19665;DHT22;9980;51.020;7.772;2023-07-29T09:11:35;24.60;99.90
19665;DHT22;9980;51.020;7.772;2023-07-29T09:14:02;24.70;99.80
19665;DHT22;9980;51.020;7.772;2023-07-29T09:16:29;24.70;99.90
19665;DHT22;9980;51.020;7.772;2023-07-29T09:19:01;24.80;99.90
19665;DHT22;9980;51.020;7.772;2023-07-29T09:21:29;24.80;99.70
19665;DHT22;9980;51.020;7.772;2023-07-29T09:23:57;24.80;99.70
19665;DHT22;9980;51.020;7.772;2023-07-29T09:26:25;25.00;99.60
19665;DHT22;9980;51.020;7.772;2023-07-29T09:28:57;25.00;99.20
19665;DHT22;9980;51.020;7.772;2023-07-29T09:31:27;25.10;99.10
19665;DHT22;9980;51.020;7.772;2023-07-29T09:34:00;25.10;98.70
19665;DHT22;9980;51.020;7.772;2023-07-29T09:36:30;25.20;98.90
19665;DHT22;9980;51.020;7.772;2023-07-29T09:38:59;25.30;98.80
19665;DHT22;9980;51.020;7.772;2023-07-29T09:41:27;25.30;98.60
19665;DHT22;9980;51.020;7.772;2023-07-29T09:43:59;25.30;98.90
19665;DHT22;9980;51.020;7.772;2023-07-29T09:46:37;25.40;98.90
19665;DHT22;9980;51.020;7.772;2023-07-29T09:49:07;25.40;97.80
19665;DHT22;9980;51.020;7.772;2023-07-29T09:51:38;25.50;97.90
19665;DHT22;9980;51.020;7.772;2023-07-29T09:54:06;25.50;97.80
19665;DHT22;9980;51.020;7.772;2023-07-29T09:56:39;25.60;98.00
19665;DHT22;9980;51.020;7.772;2023-07-29T09:59:10;25.60;97.90
19665;DHT22;9980;51.020;7.772;2023-07-29T10:01:39;25.70;97.60
19665;DHT22;9980;51.020;7.772;2023-07-29T10:04:07;25.80;98.00
19665;DHT22;9980;51.020;7.772;2023-07-29T10:06:39;25.90;97.60
19665;DHT22;9980;51.020;7.772;2023-07-29T10:09:10;26.00;97.10
19665;DHT22;9980;51.020;7.772;2023-07-29T10:11:39;26.10;97.20
19665;DHT22;9980;51.020;7.772;2023-07-29T10:14:06;26.20;97.20
19665;DHT22;9980;51.020;7.772;2023-07-29T10:16:39;26.20;97.30
19665;DHT22;9980;51.020;7.772;2023-07-29T10:19:09;26.20;96.80
19665;DHT22;9980;51.020;7.772;2023-07-29T10:21:38;26.30;96.90
19665;DHT22;9980;51.020;7.772;2023-07-29T10:24:09;26.30;97.10
19665;DHT22;9980;51.020;7.772;2023-07-29T10:26:49;26.40;97.50
19665;DHT22;9980;51.020;7.772;2023-07-29T10:29:19;26.40;97.80
19665;DHT22;9980;51.020;7.772;2023-07-29T10:31:48;26.50;97.40
19665;DHT22;9980;51.020;7.772;2023-07-29T10:34:21;26.60;97.20
19665;DHT22;9980;51.020;7.772;2023-07-29T10:36:50;26.60;97.30
19665;DHT22;9980;51.020;7.772;2023-07-29T10:39:17;26.70;97.40
19665;DHT22;9980;51.020;7.772;2023-07-29T10:42:01;26.80;97.40
19665;DHT22;9980;51.020;7.772;2023-07-29T10:47:16;26.90;97.10
19665;DHT22;9980;51.020;7.772;2023-07-29T10:49:50;27.00;97.30
19665;DHT22;9980;51.020;7.772;2023-07-29T10:55:03;27.20;97.10
19665;DHT22;9980;51.020;7.772;2023-07-29T10:57:35;27.30;96.60
19665;DHT22;9980;51.020;7.772;2023-07-29T11:00:07;27.40;96.90
19665;DHT22;9980;51.020;7.772;2023-07-29T11:02:36;27.50;96.90
19665;DHT22;9980;51.020;7.772;2023-07-29T11:05:16;27.50;96.10
19665;DHT22;9980;51.020;7.772;2023-07-29T11:10:14;27.70;95.50
19665;DHT22;9980;51.020;7.772;2023-07-29T11:12:48;27.80;95.10
19665;DHT22;9980;51.020;7.772;2023-07-29T11:15:28;27.80;95.50
19665;DHT22;9980;51.020;7.772;2023-07-29T11:20:30;27.80;94.30
19665;DHT22;9980;51.020;7.772;2023-07-29T11:23:01;27.70;94.40
19665;DHT22;9980;51.020;7.772;2023-07-29T11:25:36;27.60;94.50
19665;DHT22;9980;51.020;7.772;2023-07-29T11:28:05;27.50;94.80
19665;DHT22;9980;51.020;7.772;2023-07-29T11:30:33;27.50;94.90
19665;DHT22;9980;51.020;7.772;2023-07-29T11:33:00;27.40;95.10
19665;DHT22;9980;51.020;7.772;2023-07-29T11:35:28;27.40;95.60
19665;DHT22;9980;51.020;7.772;2023-07-29T11:37:55;27.30;95.60
19665;DHT22;9980;51.020;7.772;2023-07-29T11:40:25;27.40;95.30
19665;DHT22;9980;51.020;7.772;2023-07-29T11:42:52;27.30;95.60
19665;DHT22;9980;51.020;7.772;2023-07-29T11:45:22;27.30;95.80
19665;DHT22;9980;51.020;7.772;2023-07-29T11:48:01;27.20;95.70
19665;DHT22;9980;51.020;7.772;2023-07-29T11:50:29;27.20;96.40
19665;DHT22;9980;51.020;7.772;2023-07-29T11:52:56;27.10;95.90
19665;DHT22;9980;51.020;7.772;2023-07-29T11:55:23;27.10;96.10
19665;DHT22;9980;51.020;7.772;2023-07-29T11:57:54;27.00;95.90
19665;DHT22;9980;51.020;7.772;2023-07-29T12:00:27;27.00;95.90
19665;DHT22;9980;51.020;7.772;2023-07-29T12:02:55;26.90;96.20
19665;DHT22;9980;51.020;7.772;2023-07-29T12:05:29;26.90;96.40
19665;DHT22;9980;51.020;7.772;2023-07-29T12:07:57;26.90;96.60
19665;DHT22;9980;51.020;7.772;2023-07-29T12:10:25;26.90;96.20
19665;DHT22;9980;51.020;7.772;2023-07-29T12:12:52;27.00;95.90
19665;DHT22;9980;51.020;7.772;2023-07-29T12:15:27;27.00;96.80
19665;DHT22;9980;51.020;7.772;2023-07-29T12:17:58;27.10;97.00
19665;DHT22;9980;51.020;7.772;2023-07-29T12:20:32;27.20;96.30
19665;DHT22;9980;51.020;7.772;2023-07-29T12:23:09;27.30;96.40
19665;DHT22;9980;51.020;7.772;2023-07-29T12:25:36;27.30;96.60
19665;DHT22;9980;51.020;7.772;2023-07-29T12:28:07;27.40;96.10
19665;DHT22;9980;51.020;7.772;2023-07-29T12:30:41;27.40;96.00
19665;DHT22;9980;51.020;7.772;2023-07-29T12:33:09;27.50;96.10
19665;DHT22;9980;51.020;7.772;2023-07-29T12:35:37;27.50;95.90
19665;DHT22;9980;51.020;7.772;2023-07-29T12:38:04;27.50;95.50
19665;DHT22;9980;51.020;7.772;2023-07-29T12:40:31;27.50;95.30
19665;DHT22;9980;51.020;7.772;2023-07-29T12:42:58;27.50;95.50
19665;DHT22;9980;51.020;7.772;2023-07-29T12:45:25;27.60;95.40
19665;DHT22;9980;51.020;7.772;2023-07-29T12:47:56;27.60;95.60
19665;DHT22;9980;51.020;7.772;2023-07-29T12:50:23;27.60;95.90
19665;DHT22;9980;51.020;7.772;2023-07-29T12:52:50;27.60;95.80
19665;DHT22;9980;51.020;7.772;2023-07-29T12:55:17;27.50;94.50
19665;DHT22;9980;51.020;7.772;2023-07-29T12:57:49;27.60;95.00
19665;DHT22;9980;51.020;7.772;2023-07-29T13:00:17;27.60;95.30
19665;DHT22;9980;51.020;7.772;2023-07-29T13:02:44;27.60;94.50
19665;DHT22;9980;51.020;7.772;2023-07-29T13:05:12;27.50;94.70
19665;DHT22;9980;51.020;7.772;2023-07-29T13:07:40;27.50;94.30
19665;DHT22;9980;51.020;7.772;2023-07-29T13:10:09;27.50;94.90
19665;DHT22;9980;51.020;7.772;2023-07-29T13:12:36;27.50;94.80
19665;DHT22;9980;51.020;7.772;2023-07-29T13:15:04;27.50;95.20
19665;DHT22;9980;51.020;7.772;2023-07-29T13:17:33;27.60;94.10
19665;DHT22;9980;51.020;7.772;2023-07-29T13:20:00;27.60;94.70
19665;DHT22;9980;51.020;7.772;2023-07-29T13:22:27;27.60;95.20
19665;DHT22;9980;51.020;7.772;2023-07-29T13:24:54;27.70;94.80
19665;DHT22;9980;51.020;7.772;2023-07-29T13:27:21;27.70;94.20
19665;DHT22;9980;51.020;7.772;2023-07-29T13:29:50;27.80;95.00
19665;DHT22;9980;51.020;7.772;2023-07-29T13:32:16;27.90;94.90
19665;DHT22;9980;51.020;7.772;2023-07-29T13:34:43;27.90;94.20
19665;DHT22;9980;51.020;7.772;2023-07-29T13:37:10;28.00;93.80
19665;DHT22;9980;51.020;7.772;2023-07-29T13:39:38;28.00;93.70
19665;DHT22;9980;51.020;7.772;2023-07-29T13:42:05;28.00;93.80
19665;DHT22;9980;51.020;7.772;2023-07-29T13:44:32;28.00;93.70
19665;DHT22;9980;51.020;7.772;2023-07-29T13:46:59;28.00;94.10
19665;DHT22;9980;51.020;7.772;2023-07-29T13:49:26;28.00;93.70
19665;DHT22;9980;51.020;7.772;2023-07-29T13:51:53;28.00;93.60
19665;DHT22;9980;51.020;7.772;2023-07-29T13:54:20;28.00;93.70
19665;DHT22;9980;51.020;7.772;2023-07-29T13:56:48;28.00;93.30
19665;DHT22;9980;51.020;7.772;2023-07-29T13:59:15;28.00;93.10
19665;DHT22;9980;51.020;7.772;2023-07-29T14:01:42;28.00;93.50
19665;DHT22;9980;51.020;7.772;2023-07-29T14:04:09;28.00;92.90
19665;DHT22;9980;51.020;7.772;2023-07-29T14:06:39;27.90;93.10
19665;DHT22;9980;51.020;7.772;2023-07-29T14:09:08;27.90;93.00
19665;DHT22;9980;51.020;7.772;2023-07-29T14:11:37;27.80;93.00
19665;DHT22;9980;51.020;7.772;2023-07-29T14:14:06;27.80;93.60
19665;DHT22;9980;51.020;7.772;2023-07-29T14:16:33;27.70;93.60
19665;DHT22;9980;51.020;7.772;2023-07-29T14:19:01;27.70;93.30
19665;DHT22;9980;51.020;7.772;2023-07-29T14:21:28;27.60;93.30
19665;DHT22;9980;51.020;7.772;2023-07-29T14:24:02;27.60;93.10
19665;DHT22;9980;51.020;7.772;2023-07-29T14:26:29;27.50;93.00
19665;DHT22;9980;51.020;7.772;2023-07-29T14:28:56;27.40;93.10
19665;DHT22;9980;51.020;7.772;2023-07-29T14:31:23;27.30;93.00
19665;DHT22;9980;51.020;7.772;2023-07-29T14:33:50;27.20;93.30
19665;DHT22;9980;51.020;7.772;2023-07-29T14:36:17;27.20;93.80
19665;DHT22;9980;51.020;7.772;2023-07-29T14:38:44;27.10;93.80
19665;DHT22;9980;51.020;7.772;2023-07-29T14:41:12;27.10;94.00
19665;DHT22;9980;51.020;7.772;2023-07-29T14:43:39;27.00;93.80
19665;DHT22;9980;51.020;7.772;2023-07-29T14:46:06;26.90;94.10
19665;DHT22;9980;51.020;7.772;2023-07-29T14:48:33;26.90;95.20
19665;DHT22;9980;51.020;7.772;2023-07-29T14:51:00;26.90;95.40
19665;DHT22;9980;51.020;7.772;2023-07-29T14:53:27;26.90;96.10
19665;DHT22;9980;51.020;7.772;2023-07-29T14:55:54;26.90;96.10
19665;DHT22;9980;51.020;7.772;2023-07-29T14:58:21;27.00;95.60
19665;DHT22;9980;51.020;7.772;2023-07-29T15:00:49;27.00;96.10
19665;DHT22;9980;51.020;7.772;2023-07-29T15:03:16;27.10;95.50
19665;DHT22;9980;51.020;7.772;2023-07-29T15:05:46;27.20;95.70
19665;DHT22;9980;51.020;7.772;2023-07-29T15:08:15;27.20;95.50
19665;DHT22;9980;51.020;7.772;2023-07-29T15:10:48;27.30;94.70
19665;DHT22;9980;51.020;7.772;2023-07-29T15:13:15;27.30;95.80
19665;DHT22;9980;51.020;7.772;2023-07-29T15:15:43;27.40;95.90
19665;DHT22;9980;51.020;7.772;2023-07-29T15:18:10;27.50;95.70
19665;DHT22;9980;51.020;7.772;2023-07-29T15:20:37;27.60;95.00
19665;DHT22;9980;51.020;7.772;2023-07-29T15:23:04;27.60;95.20
19665;DHT22;9980;51.020;7.772;2023-07-29T15:25:31;27.70;94.90
19665;DHT22;9980;51.020;7.772;2023-07-29T15:27:58;27.70;94.80
19665;DHT22;9980;51.020;7.772;2023-07-29T15:30:26;27.80;95.10
19665;DHT22;9980;51.020;7.772;2023-07-29T15:32:53;27.90;94.40
19665;DHT22;9980;51.020;7.772;2023-07-29T15:35:22;28.00;94.10
19665;DHT22;9980;51.020;7.772;2023-07-29T15:37:49;28.00;92.60
19665;DHT22;9980;51.020;7.772;2023-07-29T15:40:16;28.00;93.10
19665;DHT22;9980;51.020;7.772;2023-07-29T15:42:44;28.00;92.60
19665;DHT22;9980;51.020;7.772;2023-07-29T15:45:11;27.90;92.70
19665;DHT22;9980;51.020;7.772;2023-07-29T15:47:38;27.80;92.90
19665;DHT22;9980;51.020;7.772;2023-07-29T15:50:06;27.80;92.90
19665;DHT22;9980;51.020;7.772;2023-07-29T15:52:33;27.70;93.40
19665;DHT22;9980;51.020;7.772;2023-07-29T15:55:00;27.70;93.30
19665;DHT22;9980;51.020;7.772;2023-07-29T15:57:28;27.60;93.90
19665;DHT22;9980;51.020;7.772;2023-07-29T15:59:55;27.60;93.60
19665;DHT22;9980;51.020;7.772;2023-07-29T16:02:22;27.60;93.70
19665;DHT22;9980;51.020;7.772;2023-07-29T16:04:49;27.60;93.50
19665;DHT22;9980;51.020;7.772;2023-07-29T16:07:19;27.60;93.80
19665;DHT22;9980;51.020;7.772;2023-07-29T16:09:46;27.50;93.80